createdAt,value
2017-10-04T02:22:45.211Z,14.50
2017-10-04T02:25:11.258Z,11.20
2017-10-04T02:27:37.317Z,11.00
2017-10-04T02:30:03.394Z,11.00
2017-10-04T02:32:30.213Z,11.00
2017-10-04T02:34:56.291Z,11.00
2017-10-04T02:37:22.362Z,11.00
2017-10-04T02:39:48.442Z,11.10
2017-10-04T02:42:14.507Z,11.10
2017-10-04T02:44:41.349Z,11.10
2017-10-04T02:47:07.437Z,11.10
2017-10-04T02:49:33.517Z,11.10
2017-10-04T02:52:00.317Z,11.00
2017-10-04T02:54:26.384Z,11.00
2017-10-04T02:56:52.446Z,11.00
2017-10-04T02:59:18.508Z,11.00
2017-10-04T03:01:44.590Z,11.00
2017-10-04T03:04:10.656Z,11.00
2017-10-04T03:06:36.761Z,11.10
2017-10-04T03:09:02.837Z,11.10
2017-10-04T03:11:28.916Z,11.10
2017-10-04T03:13:55.725Z,11.10
2017-10-04T03:16:21.793Z,11.10
2017-10-04T03:18:47.849Z,11.20
2017-10-04T03:21:13.922Z,11.20
2017-10-04T03:23:39.994Z,11.30
2017-10-04T03:26:06.785Z,11.20
2017-10-04T03:28:32.852Z,11.20
2017-10-04T03:30:58.954Z,11.30
2017-10-04T03:33:25.013Z,11.30
2017-10-04T03:35:51.082Z,11.30
2017-10-04T03:38:17.149Z,11.30
2017-10-04T03:40:43.949Z,11.30
2017-10-04T03:43:10.021Z,11.30
2017-10-04T03:45:36.093Z,11.30
2017-10-04T03:48:02.162Z,11.30
2017-10-04T03:50:28.220Z,11.30
2017-10-04T03:52:55.024Z,11.40
2017-10-04T03:55:21.081Z,11.30
2017-10-04T03:57:47.171Z,11.40
2017-10-04T04:00:14.242Z,11.50
2017-10-04T04:02:40.458Z,11.50
2017-10-04T04:05:06.525Z,11.60
2017-10-04T04:07:33.293Z,11.60
2017-10-04T04:09:59.349Z,11.50
2017-10-04T04:12:26.216Z,11.50
2017-10-04T04:14:52.292Z,11.50
2017-10-04T04:17:19.102Z,11.50
2017-10-04T04:19:45.171Z,11.40
2017-10-04T04:22:11.253Z,11.50
2017-10-04T04:24:37.316Z,11.50
2017-10-04T04:27:03.359Z,11.40
2017-10-04T04:29:30.164Z,11.40
2017-10-04T04:34:56.252Z,11.40
2017-10-04T04:37:22.330Z,11.40
2017-10-04T04:39:48.418Z,11.40
2017-10-04T04:42:14.462Z,11.40
2017-10-04T04:44:40.539Z,11.40
2017-10-04T04:47:06.601Z,11.40
2017-10-04T04:49:32.685Z,11.40
2017-10-04T04:51:58.741Z,11.40
2017-10-04T04:54:25.544Z,11.30
2017-10-04T04:56:51.604Z,11.30
2017-10-04T04:59:17.654Z,11.30
2017-10-04T05:01:43.747Z,11.30
2017-10-04T05:04:09.817Z,11.30
2017-10-04T05:06:36.661Z,11.20
2017-10-04T05:09:02.752Z,11.20
2017-10-04T05:11:28.869Z,11.20
2017-10-04T05:13:54.957Z,11.30
2017-10-04T05:16:21.839Z,11.40
2017-10-04T05:18:47.896Z,11.40
2017-10-04T05:21:14.721Z,11.40
2017-10-04T05:23:40.784Z,11.40
2017-10-04T05:26:06.860Z,11.40
2017-10-04T05:28:32.918Z,11.40
2017-10-04T05:30:59.003Z,11.40
2017-10-04T05:33:25.086Z,11.50
2017-10-04T05:35:51.194Z,11.50
2017-10-04T05:38:18.036Z,11.60
2017-10-04T05:40:44.122Z,11.50
2017-10-04T05:43:10.938Z,11.60
2017-10-04T05:45:37.763Z,11.60
2017-10-04T05:48:03.952Z,11.60
2017-10-04T05:50:30.062Z,11.60
2017-10-04T05:52:56.152Z,11.60
2017-10-04T05:55:22.226Z,11.70
2017-10-04T05:57:48.300Z,11.70
2017-10-04T06:00:14.393Z,11.70
2017-10-04T06:02:41.310Z,11.70
2017-10-04T06:05:07.410Z,11.70
2017-10-04T06:07:33.505Z,11.70
2017-10-04T06:09:59.590Z,11.70
2017-10-04T06:12:26.423Z,11.80
2017-10-04T06:14:53.245Z,11.80
2017-10-04T06:17:20.061Z,11.80
2017-10-04T06:19:46.142Z,11.80
2017-10-04T06:22:12.218Z,11.80
2017-10-04T06:24:38.293Z,11.80
2017-10-04T06:27:05.097Z,11.80
2017-10-04T06:29:31.198Z,11.80
2017-10-04T06:31:57.282Z,11.90
2017-10-04T06:34:23.377Z,11.90
2017-10-04T06:36:49.477Z,11.80
2017-10-04T06:39:15.617Z,11.90
2017-10-04T06:41:41.702Z,11.90
2017-10-04T06:44:07.796Z,11.90
2017-10-04T06:46:34.610Z,12.00
2017-10-04T06:49:01.438Z,12.10
2017-10-04T06:51:27.500Z,12.10
2017-10-04T06:53:53.592Z,12.10
2017-10-04T06:56:19.692Z,12.10
2017-10-04T06:58:45.779Z,12.10
2017-10-04T07:01:11.841Z,12.10
2017-10-04T07:03:37.925Z,12.00
2017-10-04T07:06:04.018Z,12.00
2017-10-04T07:08:30.130Z,12.00
2017-10-04T07:10:57.021Z,12.10
2017-10-04T07:13:23.145Z,12.10
2017-10-04T07:15:49.246Z,12.10
2017-10-04T07:18:15.403Z,12.20
2017-10-04T07:20:41.506Z,12.20
2017-10-04T07:23:08.317Z,12.10
2017-10-04T07:25:34.385Z,12.20
2017-10-04T07:28:00.464Z,12.20
2017-10-04T07:30:26.550Z,12.30
2017-10-04T07:32:52.624Z,12.30
2017-10-04T07:35:18.705Z,12.40
2017-10-04T07:37:44.790Z,12.40
2017-10-04T07:40:11.608Z,12.60
2017-10-04T07:42:38.417Z,12.60
2017-10-04T07:45:04.560Z,12.60
2017-10-04T07:47:30.652Z,12.60
2017-10-04T07:49:57.475Z,12.80
2017-10-04T07:52:23.557Z,12.80
2017-10-04T07:54:49.690Z,12.90
2017-10-04T07:57:15.786Z,12.90
2017-10-04T07:59:41.860Z,12.90
2017-10-04T08:02:07.967Z,13.00
2017-10-04T08:04:34.030Z,13.00
2017-10-04T08:07:00.900Z,13.00
2017-10-04T08:09:26.957Z,13.00
2017-10-04T08:11:53.062Z,13.10
2017-10-04T08:14:19.104Z,13.00
2017-10-04T08:16:45.929Z,13.10
2017-10-04T08:19:12.737Z,13.00
2017-10-04T08:21:38.815Z,13.00
2017-10-04T08:24:04.918Z,12.90
2017-10-04T08:26:30.978Z,13.00
2017-10-04T08:28:57.798Z,13.20
2017-10-04T08:31:23.881Z,13.20
2017-10-04T08:33:49.946Z,13.50
2017-10-04T08:36:15.994Z,13.60
2017-10-04T08:38:42.057Z,13.60
2017-10-04T08:41:08.865Z,13.60
2017-10-04T08:43:34.923Z,13.60
2017-10-04T08:46:00.965Z,13.60
2017-10-04T08:48:35.371Z,13.60
2017-10-04T08:51:01.453Z,13.50
2017-10-04T08:53:27.519Z,13.40
2017-10-04T08:55:54.325Z,13.40
2017-10-04T08:58:21.177Z,13.30
2017-10-04T09:00:47.251Z,13.30
2017-10-04T09:03:13.325Z,13.30
2017-10-04T09:05:43.234Z,13.30
2017-10-04T09:08:09.298Z,13.40
2017-10-04T09:10:36.122Z,13.40
2017-10-04T09:13:02.923Z,13.60
2017-10-04T09:15:28.989Z,13.60
2017-10-04T09:17:55.037Z,13.50
2017-10-04T09:20:21.141Z,13.30
2017-10-04T09:22:47.189Z,13.30
2017-10-04T09:25:14.001Z,13.20
2017-10-04T09:27:40.059Z,13.20
2017-10-04T09:30:06.105Z,13.30
2017-10-04T09:32:32.167Z,13.30
2017-10-04T09:34:58.245Z,13.30
2017-10-04T09:37:24.300Z,13.30
2017-10-04T09:39:50.374Z,13.30
2017-10-04T09:42:17.220Z,13.50
2017-10-04T09:44:43.272Z,13.50
2017-10-04T09:47:09.355Z,13.50
2017-10-04T09:49:35.397Z,13.70
2017-10-04T09:52:01.483Z,13.50
2017-10-04T09:54:27.547Z,13.60
2017-10-04T09:56:53.617Z,13.40
2017-10-04T09:59:19.675Z,13.30
2017-10-04T10:01:45.761Z,13.30
2017-10-04T10:04:11.852Z,13.30
2017-10-04T10:06:37.957Z,13.40
2017-10-04T10:09:04.045Z,13.40
2017-10-04T10:11:30.163Z,13.30
2017-10-04T10:13:56.238Z,13.30
2017-10-04T10:16:23.041Z,13.30
2017-10-04T10:18:49.105Z,13.30
2017-10-04T10:21:15.177Z,13.30
2017-10-04T10:23:42.001Z,13.30
2017-10-04T10:26:08.794Z,13.30
2017-10-04T10:28:34.853Z,13.30
2017-10-04T10:31:00.942Z,13.40
2017-10-04T10:33:27.041Z,13.30
2017-10-04T10:35:53.097Z,13.20
2017-10-04T10:38:19.164Z,13.20
2017-10-04T10:40:46.013Z,13.10
2017-10-04T10:43:12.085Z,13.10
2017-10-04T10:45:38.135Z,13.20
2017-10-04T10:48:04.230Z,13.20
2017-10-04T10:50:31.025Z,13.20
2017-10-04T10:52:57.094Z,13.10
2017-10-04T10:55:23.157Z,13.20
2017-10-04T10:57:49.225Z,13.30
2017-10-04T11:00:15.269Z,13.40
2017-10-04T11:02:41.333Z,13.20
2017-10-04T11:05:07.414Z,13.20
2017-10-04T11:07:34.187Z,13.10
2017-10-04T11:10:00.262Z,13.10
2017-10-04T11:12:26.308Z,13.20
2017-10-04T11:14:52.370Z,13.20
2017-10-04T11:17:19.162Z,13.20
2017-10-04T11:19:45.287Z,13.10
2017-10-04T11:22:11.361Z,13.20
2017-10-04T11:24:37.421Z,13.30
2017-10-04T11:27:03.501Z,13.40
2017-10-04T11:29:30.321Z,13.40
2017-10-04T11:31:56.400Z,13.40
2017-10-04T11:34:22.483Z,13.40
2017-10-04T11:36:48.581Z,13.40
2017-10-04T11:39:15.411Z,13.40
2017-10-04T11:41:42.213Z,13.40
2017-10-04T11:44:08.258Z,13.40
2017-10-04T11:46:34.314Z,13.50
2017-10-04T11:49:00.356Z,13.40
2017-10-04T11:51:27.162Z,13.50
2017-10-04T11:53:53.241Z,13.50
2017-10-04T11:56:19.313Z,13.40
2017-10-04T11:58:46.126Z,13.50
2017-10-04T12:01:12.932Z,13.60
2017-10-04T12:03:38.986Z,13.60
2017-10-04T12:06:05.063Z,13.60
2017-10-04T12:08:31.897Z,13.50
2017-10-04T12:10:57.998Z,13.50
2017-10-04T12:13:24.044Z,13.50
2017-10-04T12:15:50.101Z,13.50
2017-10-04T12:18:16.154Z,13.40
2017-10-04T12:20:42.388Z,13.30
2017-10-04T12:23:08.454Z,13.30
2017-10-04T12:25:34.568Z,13.30
2017-10-04T12:28:01.369Z,13.30
2017-10-04T12:30:27.445Z,13.30
2017-10-04T12:32:53.545Z,13.40
2017-10-04T12:35:19.618Z,13.40
2017-10-04T12:37:45.825Z,13.40
2017-10-04T12:40:11.885Z,13.40
2017-10-04T12:42:37.964Z,13.30
2017-10-04T12:45:04.782Z,13.40
2017-10-04T12:47:31.605Z,13.50
2017-10-04T12:49:57.650Z,13.40
2017-10-04T12:52:23.715Z,13.40
2017-10-04T12:54:50.517Z,13.30
2017-10-04T12:57:16.597Z,13.30
2017-10-04T12:59:42.657Z,13.30
2017-10-04T13:02:08.738Z,13.30
2017-10-04T13:04:34.781Z,13.30
2017-10-04T13:07:00.974Z,13.30
2017-10-04T13:09:27.109Z,13.30
2017-10-04T13:11:53.207Z,13.40
2017-10-04T13:14:19.257Z,13.40
2017-10-04T13:16:45.293Z,13.40
2017-10-04T13:19:11.375Z,13.40
2017-10-04T13:21:38.180Z,13.50
2017-10-04T13:24:05.011Z,13.60
2017-10-04T13:26:31.110Z,13.60
2017-10-04T13:28:57.173Z,13.60
2017-10-04T13:31:23.263Z,13.50
2017-10-04T13:33:49.344Z,13.50
2017-10-04T13:36:15.450Z,13.50
2017-10-04T13:38:41.522Z,13.50
2017-10-04T13:41:07.569Z,13.50
2017-10-04T13:43:33.640Z,13.60
2017-10-04T13:45:59.737Z,13.70
2017-10-04T13:48:25.846Z,13.70
2017-10-04T13:50:51.946Z,13.70
2017-10-04T13:53:18.034Z,13.80
2017-10-04T13:55:44.201Z,13.80
2017-10-04T13:58:10.318Z,13.80
2017-10-04T14:00:36.551Z,13.90
2017-10-04T14:03:03.423Z,13.70
2017-10-04T14:05:29.591Z,13.70
2017-10-04T14:07:56.452Z,13.80
2017-10-04T14:10:22.553Z,13.80
2017-10-04T14:12:48.626Z,13.70
2017-10-04T14:15:15.474Z,13.70
2017-10-04T14:17:42.274Z,13.80
2017-10-04T14:20:08.340Z,13.80
2017-10-04T14:22:34.414Z,13.70
2017-10-04T14:25:00.610Z,13.70
2017-10-04T14:27:26.676Z,13.80
2017-10-04T14:29:52.805Z,13.70
2017-10-04T14:32:18.893Z,13.60
2017-10-04T14:34:44.961Z,13.60
2017-10-04T14:37:11.781Z,13.50
2017-10-04T14:39:37.834Z,13.50
2017-10-04T14:42:03.913Z,13.50
2017-10-04T14:44:30.716Z,13.40
2017-10-04T14:46:56.798Z,13.40
2017-10-04T14:49:22.859Z,13.40
2017-10-04T14:51:49.690Z,13.40
2017-10-04T14:54:15.767Z,13.40
2017-10-04T14:56:41.854Z,13.40
2017-10-04T14:59:07.917Z,13.50
2017-10-04T15:01:33.975Z,13.50
2017-10-04T15:04:00.033Z,13.50
2017-10-04T15:06:26.873Z,13.50
2017-10-04T15:08:53.661Z,13.40
2017-10-04T15:11:19.764Z,13.30
2017-10-04T15:13:45.839Z,13.40
2017-10-04T15:16:11.934Z,13.40
2017-10-04T15:18:38.018Z,13.40
2017-10-04T15:21:04.110Z,13.40
2017-10-04T15:23:30.183Z,13.40
2017-10-04T15:25:56.334Z,13.30
2017-10-04T15:28:23.414Z,13.30
2017-10-04T15:30:50.289Z,13.30
2017-10-04T15:33:16.395Z,13.30
2017-10-04T15:35:42.528Z,13.30
2017-10-04T15:38:08.617Z,13.30
2017-10-04T15:40:34.746Z,13.30
2017-10-04T15:43:00.835Z,13.30
2017-10-04T15:45:26.881Z,13.40
2017-10-04T15:47:53.706Z,13.30
2017-10-04T15:50:20.502Z,13.20
2017-10-04T15:52:46.578Z,13.20
2017-10-04T15:55:12.653Z,13.20
2017-10-04T15:57:39.445Z,13.20
2017-10-04T16:00:05.491Z,13.20
2017-10-04T16:02:32.333Z,13.20
2017-10-04T16:04:58.412Z,13.10
2017-10-04T16:07:24.489Z,13.10
2017-10-04T16:09:50.669Z,13.00
2017-10-04T16:12:16.735Z,12.90
2017-10-04T16:14:42.774Z,12.90
2017-10-04T16:17:09.561Z,12.90
2017-10-04T16:19:35.612Z,12.80
2017-10-04T16:22:02.429Z,12.80
2017-10-04T16:24:29.225Z,12.70
2017-10-04T16:26:55.320Z,12.70
2017-10-04T16:29:21.378Z,12.60
2017-10-04T16:31:48.173Z,12.60
2017-10-04T16:34:14.241Z,12.60
2017-10-04T16:36:40.273Z,12.60
2017-10-04T16:39:06.342Z,12.60
2017-10-04T16:41:33.132Z,12.70
2017-10-04T16:43:59.209Z,12.70
2017-10-04T16:46:25.261Z,12.70
2017-10-04T16:48:52.081Z,12.80
2017-10-04T16:51:18.926Z,12.90
2017-10-04T16:53:44.966Z,12.90
2017-10-04T16:56:11.030Z,12.90
2017-10-04T16:58:37.855Z,12.90
2017-10-04T17:01:03.910Z,12.90
2017-10-04T17:03:29.962Z,12.90
2017-10-04T17:05:56.128Z,12.90
2017-10-04T17:08:22.169Z,12.90
2017-10-04T17:10:48.249Z,12.90
2017-10-04T17:13:14.309Z,12.90
2017-10-04T17:15:41.010Z,12.90
2017-10-04T17:18:07.829Z,12.90
2017-10-04T17:20:33.899Z,12.90
2017-10-04T17:23:00.677Z,12.90
2017-10-04T17:25:26.730Z,12.90
2017-10-04T17:27:52.773Z,12.90
2017-10-04T17:30:18.830Z,12.90
2017-10-04T17:32:44.890Z,12.70
2017-10-04T17:35:10.946Z,12.60
2017-10-04T17:37:37.734Z,12.20
2017-10-04T17:40:03.791Z,12.20
2017-10-04T17:42:29.864Z,12.10
2017-10-04T17:44:55.904Z,12.00
2017-10-04T17:47:22.709Z,11.70
2017-10-04T17:49:48.777Z,11.70
2017-10-04T17:52:14.852Z,11.60
2017-10-04T17:54:40.885Z,11.40
2017-10-04T17:57:06.957Z,11.30
2017-10-04T17:59:33.001Z,11.20
2017-10-04T18:01:59.095Z,11.10
2017-10-04T18:04:25.865Z,11.00
2017-10-04T18:06:51.929Z,10.90
2017-10-04T18:09:18.709Z,10.90
2017-10-04T18:11:44.750Z,10.90
2017-10-04T18:14:10.809Z,10.90
2017-10-04T18:16:36.856Z,10.80
2017-10-04T18:19:02.911Z,10.80
2017-10-04T18:21:28.984Z,10.80
2017-10-04T18:23:55.045Z,10.70
2017-10-04T18:26:21.101Z,10.70
2017-10-04T18:28:47.185Z,10.80
2017-10-04T18:31:13.228Z,10.80
2017-10-04T18:33:40.053Z,10.80
2017-10-04T18:36:06.100Z,10.80
2017-10-04T18:38:32.173Z,10.80
2017-10-04T18:40:58.993Z,10.80
2017-10-04T18:43:25.933Z,10.80
2017-10-04T18:45:52.730Z,10.80
2017-10-04T18:48:18.833Z,10.70
2017-10-04T18:50:44.897Z,10.70
2017-10-04T18:53:10.948Z,10.70
2017-10-04T18:55:37.013Z,10.70
2017-10-04T18:58:03.073Z,10.70
2017-10-04T19:00:29.153Z,10.70
2017-10-04T19:02:55.205Z,10.70
2017-10-04T19:05:21.273Z,10.70
2017-10-04T19:07:47.361Z,10.80
2017-10-04T19:10:13.477Z,10.80
2017-10-04T19:12:39.873Z,10.80
2017-10-04T19:15:06.676Z,10.90
2017-10-04T19:17:32.756Z,10.90
2017-10-04T19:19:58.835Z,10.90
2017-10-04T19:22:24.877Z,10.90
2017-10-04T19:24:50.957Z,10.90
2017-10-04T19:27:17.008Z,10.90
2017-10-04T19:29:43.136Z,11.00
2017-10-04T19:32:09.202Z,11.00
2017-10-04T19:34:35.351Z,11.00
2017-10-04T19:37:01.528Z,11.00
2017-10-04T19:39:27.636Z,11.00
2017-10-04T19:41:53.707Z,11.00
2017-10-04T19:44:20.526Z,11.00
2017-10-04T19:46:47.346Z,10.90
2017-10-04T19:49:14.255Z,10.90
2017-10-04T19:51:43.985Z,10.90
2017-10-04T19:54:10.790Z,10.90
2017-10-04T19:56:36.847Z,10.90
2017-10-04T19:59:02.916Z,10.90
2017-10-04T20:01:28.957Z,11.00
2017-10-04T20:03:55.029Z,11.00
2017-10-04T20:06:21.154Z,11.00
2017-10-04T20:08:47.326Z,11.00
2017-10-04T20:11:14.903Z,10.90
2017-10-04T20:13:41.065Z,11.00
2017-10-04T20:16:07.139Z,11.00
2017-10-04T20:18:33.959Z,11.00
2017-10-04T20:21:00.784Z,11.00
2017-10-04T20:23:27.597Z,11.00
2017-10-04T20:25:53.681Z,11.00
2017-10-04T20:28:19.778Z,11.00
2017-10-04T20:30:45.845Z,10.90
2017-10-04T20:33:11.901Z,10.90
2017-10-04T20:35:38.002Z,10.90
2017-10-04T20:38:04.091Z,10.90
2017-10-04T20:40:30.236Z,10.90
2017-10-04T20:42:56.510Z,10.90
2017-10-04T20:45:22.669Z,10.90
2017-10-04T20:47:48.730Z,11.00
2017-10-04T20:50:14.798Z,10.90
2017-10-04T20:52:41.897Z,10.90
2017-10-04T20:55:07.950Z,11.00
2017-10-04T20:57:34.136Z,11.00
2017-10-04T21:00:00.961Z,11.00
2017-10-04T21:02:27.057Z,10.90
2017-10-04T21:04:53.189Z,10.90
2017-10-04T21:07:19.249Z,11.00
2017-10-04T21:09:46.113Z,11.00
2017-10-04T21:12:12.193Z,10.90
2017-10-04T21:14:38.338Z,11.00
2017-10-04T21:17:04.418Z,10.90
2017-10-04T21:19:30.517Z,10.90
2017-10-04T21:21:56.584Z,10.90
2017-10-04T21:24:22.779Z,10.90
2017-10-04T21:26:48.845Z,10.90
2017-10-04T21:29:15.652Z,10.90
2017-10-04T21:31:41.697Z,10.90
2017-10-04T21:34:07.768Z,10.90
2017-10-04T21:36:33.834Z,10.80
2017-10-04T21:38:59.900Z,10.80
2017-10-04T21:41:26.728Z,10.80
2017-10-04T21:43:53.573Z,10.80
2017-10-04T21:46:20.409Z,10.80
2017-10-04T21:48:46.457Z,10.80
2017-10-04T21:51:12.540Z,10.80
2017-10-04T21:53:38.601Z,10.80
2017-10-04T21:56:04.674Z,10.80
2017-10-04T21:58:30.744Z,10.80
2017-10-04T22:00:57.554Z,10.80
2017-10-04T22:03:24.373Z,10.80
2017-10-04T22:05:51.222Z,10.80
2017-10-04T22:08:17.312Z,10.80
2017-10-04T22:10:44.137Z,10.80
2017-10-04T22:13:10.205Z,10.80
2017-10-04T22:15:36.257Z,10.80
2017-10-04T22:18:03.105Z,10.90
2017-10-04T22:20:29.177Z,10.90
2017-10-04T22:22:55.233Z,10.90
2017-10-04T22:25:21.289Z,10.90
2017-10-04T22:27:47.372Z,10.90
2017-10-04T22:30:13.450Z,10.90
2017-10-04T22:32:39.525Z,11.00
2017-10-04T22:35:05.598Z,11.00
2017-10-04T22:37:31.659Z,10.90
2017-10-04T22:39:58.465Z,10.90
2017-10-04T22:42:24.541Z,10.90
2017-10-04T22:44:50.611Z,10.90
2017-10-04T22:47:17.482Z,10.70
2017-10-04T22:49:43.554Z,10.70
2017-10-04T22:52:10.380Z,10.70
2017-10-04T22:54:36.424Z,10.70
2017-10-04T22:57:02.488Z,10.70
2017-10-04T22:59:28.558Z,10.70
2017-10-04T23:01:54.649Z,10.60
2017-10-04T23:04:20.734Z,10.60
2017-10-04T23:06:47.543Z,10.50
2017-10-04T23:09:14.374Z,10.50
2017-10-04T23:11:41.195Z,10.50
2017-10-04T23:14:08.007Z,10.50
2017-10-04T23:16:34.080Z,10.50
2017-10-04T23:19:00.218Z,10.50
2017-10-04T23:21:26.312Z,10.50
2017-10-04T23:23:52.397Z,10.50
2017-10-04T23:26:18.457Z,10.60
2017-10-04T23:28:44.531Z,10.60
2017-10-04T23:31:10.648Z,10.60
2017-10-04T23:33:36.694Z,10.60
2017-10-04T23:36:02.756Z,10.60
2017-10-04T23:38:28.849Z,10.60
2017-10-04T23:40:54.917Z,10.60
2017-10-04T23:43:20.970Z,10.70
2017-10-04T23:45:47.053Z,10.70
2017-10-04T23:48:13.933Z,10.70
2017-10-04T23:50:39.971Z,10.70
2017-10-04T23:53:06.055Z,10.70
2017-10-04T23:55:32.109Z,10.70
2017-10-04T23:57:58.920Z,10.70
